createdAt,value
2019-02-06T00:00:53.931Z,21.00
2019-02-06T00:03:24.060Z,22.30
2019-02-06T00:05:53.822Z,22.62
2019-02-06T00:08:23.645Z,22.50
2019-02-06T00:10:53.456Z,21.05
2019-02-06T00:13:23.283Z,20.25
2019-02-06T00:15:53.388Z,18.70
2019-02-06T00:18:23.320Z,19.40
2019-02-06T00:20:53.143Z,18.77
2019-02-06T00:23:22.934Z,18.17
2019-02-06T00:25:52.741Z,22.82
2019-02-06T00:28:22.546Z,23.73
2019-02-06T00:30:52.754Z,18.57
2019-02-06T00:33:22.395Z,20.25
2019-02-06T00:35:52.135Z,22.10
2019-02-06T00:38:21.850Z,19.30
2019-02-06T00:40:51.524Z,20.15
2019-02-06T00:43:21.141Z,20.35
2019-02-06T00:45:50.922Z,20.97
2019-02-06T00:48:20.564Z,20.92
2019-02-06T00:50:50.360Z,21.07
2019-02-06T00:53:20.109Z,19.05
2019-02-06T00:55:49.875Z,19.12
2019-02-06T00:58:19.536Z,21.70
2019-02-06T01:00:49.263Z,21.93
2019-02-06T01:03:19.010Z,21.75
2019-02-06T01:05:48.676Z,22.98
2019-02-06T01:08:18.531Z,21.45
2019-02-06T01:10:48.212Z,20.20
2019-02-06T01:13:17.877Z,19.48
2019-02-06T01:15:47.624Z,17.02
2019-02-06T01:18:17.244Z,25.13
2019-02-06T01:20:46.988Z,22.10
2019-02-06T01:23:16.681Z,19.82
2019-02-06T01:25:46.395Z,21.07
2019-02-06T01:28:16.037Z,20.90
2019-02-06T01:30:58.573Z,20.05
2019-02-06T01:33:28.251Z,18.67
2019-02-06T01:35:58.033Z,20.05
2019-02-06T01:38:27.902Z,20.48
2019-02-06T01:40:57.688Z,20.60
2019-02-06T01:43:27.488Z,22.13
2019-02-06T01:45:57.218Z,21.25
2019-02-06T01:48:26.930Z,21.60
2019-02-06T01:50:56.582Z,21.35
2019-02-06T01:53:26.176Z,23.20
2019-02-06T01:55:55.863Z,22.32
2019-02-06T01:58:25.657Z,20.82
2019-02-06T02:00:55.382Z,20.68
2019-02-06T02:03:25.154Z,22.35
2019-02-06T02:06:02.524Z,19.90
2019-02-06T02:08:26.477Z,22.43
2019-02-06T02:10:56.228Z,22.20
2019-02-06T02:13:25.964Z,22.45
2019-02-06T02:15:55.798Z,20.97
2019-02-06T02:18:25.430Z,23.83
2019-02-06T02:20:55.208Z,21.42
2019-02-06T02:23:24.952Z,24.90
2019-02-06T02:25:54.764Z,25.10
2019-02-06T02:28:24.426Z,23.27
2019-02-06T02:30:55.710Z,22.67
2019-02-06T02:33:25.427Z,22.53
2019-02-06T02:35:55.076Z,21.73
2019-02-06T02:38:24.741Z,21.43
2019-02-06T02:40:54.817Z,21.55
2019-02-06T02:43:24.485Z,22.30
2019-02-06T02:45:54.325Z,22.00
2019-02-06T02:48:24.165Z,23.17
2019-02-06T02:50:53.850Z,23.10
2019-02-06T02:53:23.534Z,22.43
2019-02-06T02:55:53.550Z,24.47
2019-02-06T02:58:23.370Z,21.87
2019-02-06T03:01:15.199Z,22.93
2019-02-06T03:03:52.539Z,24.33
2019-02-06T03:06:28.305Z,25.55
2019-02-06T03:08:53.546Z,20.88
2019-02-06T03:11:23.251Z,19.50
2019-02-06T03:13:52.933Z,22.67
2019-02-06T03:16:22.695Z,23.90
2019-02-06T03:18:52.626Z,24.92
2019-02-06T03:21:22.403Z,23.87
2019-02-06T03:23:52.174Z,24.52
2019-02-06T03:26:21.926Z,24.87
2019-02-06T03:28:51.624Z,24.47
2019-02-06T03:31:21.386Z,22.83
2019-02-06T03:33:51.078Z,24.92
2019-02-06T03:36:20.745Z,21.52
2019-02-06T03:38:51.297Z,22.02
2019-02-06T03:41:21.012Z,22.30
2019-02-06T03:43:51.073Z,23.00
2019-02-06T03:46:20.844Z,21.82
2019-02-06T03:48:50.604Z,22.98
2019-02-06T03:51:20.250Z,23.25
2019-02-06T03:53:49.989Z,23.07
2019-02-06T03:56:19.618Z,22.13
2019-02-06T03:58:49.320Z,23.05
2019-02-06T04:01:19.030Z,22.48
2019-02-06T04:03:48.776Z,22.13
2019-02-06T04:06:18.374Z,21.15
2019-02-06T04:08:48.013Z,22.13
2019-02-06T04:11:17.756Z,19.45
2019-02-06T04:13:47.467Z,18.48
2019-02-06T04:16:17.197Z,22.27
2019-02-06T04:18:46.989Z,20.32
2019-02-06T04:21:16.786Z,19.57
2019-02-06T04:23:46.445Z,20.52
2019-02-06T04:26:16.216Z,21.57
2019-02-06T04:28:46.228Z,20.88
2019-02-06T04:31:15.964Z,23.25
2019-02-06T04:33:45.700Z,21.25
2019-02-06T04:36:15.399Z,24.05
2019-02-06T04:38:45.246Z,23.40
2019-02-06T04:41:15.014Z,22.55
2019-02-06T04:43:44.675Z,24.52
2019-02-06T04:46:14.692Z,21.30
2019-02-06T04:48:44.426Z,22.77
2019-02-06T04:51:14.083Z,24.85
2019-02-06T04:53:43.866Z,25.55
2019-02-06T04:56:13.545Z,22.62
2019-02-06T04:58:43.385Z,25.35
2019-02-06T05:01:13.275Z,26.15
2019-02-06T05:03:42.930Z,26.40
2019-02-06T05:06:12.609Z,26.65
2019-02-06T05:08:42.259Z,26.93
2019-02-06T05:11:11.916Z,24.57
2019-02-06T05:13:41.689Z,26.97
2019-02-06T05:16:11.425Z,22.70
2019-02-06T05:18:41.103Z,21.95
2019-02-06T05:21:10.732Z,19.67
2019-02-06T05:23:40.523Z,20.92
2019-02-06T05:26:10.136Z,24.02
2019-02-06T05:28:39.907Z,22.48
2019-02-06T05:31:09.642Z,23.70
2019-02-06T05:33:39.326Z,22.17
2019-02-06T05:36:08.997Z,22.10
2019-02-06T05:38:38.732Z,26.02
2019-02-06T05:41:08.507Z,25.32
2019-02-06T05:43:38.215Z,25.77
2019-02-06T05:46:07.852Z,24.30
2019-02-06T05:48:37.620Z,21.33
2019-02-06T05:51:07.275Z,23.00
2019-02-06T05:53:36.953Z,23.35
2019-02-06T05:56:06.726Z,24.57
2019-02-06T05:58:36.471Z,24.85
2019-02-06T06:01:06.175Z,24.67
2019-02-06T06:03:36.270Z,26.00
2019-02-06T06:06:06.002Z,23.15
2019-02-06T06:08:35.668Z,26.12
2019-02-06T06:11:05.491Z,25.20
2019-02-06T06:13:35.303Z,23.27
2019-02-06T06:16:05.009Z,23.85
2019-02-06T06:18:35.147Z,20.95
2019-02-06T06:21:04.950Z,20.25
2019-02-06T06:23:34.617Z,23.30
2019-02-06T06:26:04.860Z,23.07
2019-02-06T06:28:34.559Z,21.33
2019-02-06T06:31:04.434Z,22.35
2019-02-06T06:33:34.669Z,22.73
2019-02-06T06:36:04.352Z,23.00
2019-02-06T06:38:34.098Z,23.27
2019-02-06T06:41:04.446Z,21.27
2019-02-06T06:43:34.270Z,19.32
2019-02-06T06:46:03.906Z,25.37
2019-02-06T06:48:34.288Z,23.62
2019-02-06T06:51:04.046Z,24.25
2019-02-06T06:53:33.748Z,23.70
2019-02-06T06:56:03.510Z,23.98
2019-02-06T06:58:33.312Z,23.30
2019-02-06T07:01:03.089Z,23.27
2019-02-06T07:03:32.908Z,23.27
2019-02-06T07:06:02.692Z,24.57
2019-02-06T07:08:32.478Z,26.02
2019-02-06T07:11:02.097Z,23.92
2019-02-06T07:13:31.762Z,23.77
2019-02-06T07:16:01.500Z,24.92
2019-02-06T07:18:31.091Z,24.60
2019-02-06T07:21:01.612Z,24.18
2019-02-06T07:23:31.577Z,22.20
2019-02-06T07:26:01.356Z,23.73
2019-02-06T07:28:31.100Z,21.05
2019-02-06T07:31:00.737Z,22.07
2019-02-06T07:33:30.487Z,19.65
2019-02-06T07:36:00.224Z,18.50
2019-02-06T07:38:30.005Z,18.52
2019-02-06T07:40:59.701Z,22.22
2019-02-06T07:43:29.406Z,21.68
2019-02-06T07:45:59.094Z,20.25
2019-02-06T07:48:28.864Z,19.95
2019-02-06T07:50:58.553Z,19.95
2019-02-06T07:53:28.189Z,21.57
2019-02-06T07:55:57.911Z,20.92
2019-02-06T07:58:27.716Z,19.60
2019-02-06T08:00:57.428Z,20.90
2019-02-06T08:03:27.096Z,22.93
2019-02-06T08:05:56.879Z,24.25
2019-02-06T08:08:35.727Z,21.30
2019-02-06T08:10:58.002Z,21.43
2019-02-06T08:13:27.619Z,21.48
2019-02-06T08:15:57.476Z,21.70
2019-02-06T08:18:27.246Z,23.47
2019-02-06T08:20:56.991Z,23.97
2019-02-06T08:23:26.773Z,20.50
2019-02-06T08:25:56.368Z,21.60
2019-02-06T08:28:26.128Z,23.13
2019-02-06T08:30:56.180Z,20.70
2019-02-06T08:33:25.793Z,20.00
2019-02-06T08:35:55.523Z,20.07
2019-02-06T08:38:25.184Z,21.80
2019-02-06T08:40:54.906Z,21.20
2019-02-06T08:43:24.639Z,20.97
2019-02-06T08:45:54.815Z,22.87
2019-02-06T08:48:24.646Z,21.77
2019-02-06T08:50:54.396Z,21.70
2019-02-06T08:53:24.137Z,21.97
2019-02-06T08:55:53.996Z,22.53
2019-02-06T08:58:23.679Z,22.53
2019-02-06T09:00:53.816Z,22.23
2019-02-06T09:03:23.664Z,21.97
2019-02-06T09:05:53.470Z,22.33
2019-02-06T09:08:23.079Z,23.97
2019-02-06T09:10:52.725Z,23.40
2019-02-06T09:13:22.495Z,22.73
2019-02-06T09:15:52.457Z,23.30
2019-02-06T09:18:22.199Z,22.17
2019-02-06T09:20:52.836Z,24.20
2019-02-06T09:23:22.774Z,23.87
2019-02-06T09:25:52.513Z,21.70
2019-02-06T09:28:22.145Z,23.10
2019-02-06T09:30:51.830Z,23.23
2019-02-06T09:33:21.611Z,22.00
2019-02-06T09:35:51.579Z,21.47
2019-02-06T09:38:21.347Z,20.47
2019-02-06T09:40:51.028Z,21.80
2019-02-06T09:43:20.875Z,23.00
2019-02-06T09:45:50.857Z,22.13
2019-02-06T09:48:21.980Z,22.67
2019-02-06T09:50:51.784Z,22.60
2019-02-06T09:53:21.443Z,23.00
2019-02-06T09:55:53.278Z,21.47
2019-02-06T09:58:22.544Z,21.53
2019-02-06T10:00:52.290Z,23.87
2019-02-06T10:03:22.582Z,22.60
2019-02-06T10:05:52.201Z,20.60
2019-02-06T10:08:21.853Z,19.17
2019-02-06T10:10:51.621Z,19.70
2019-02-06T10:13:21.380Z,17.53
2019-02-06T10:15:51.124Z,19.53
2019-02-06T10:18:20.846Z,18.87
2019-02-06T10:20:52.007Z,18.53
2019-02-06T10:23:21.619Z,19.10
2019-02-06T10:25:53.605Z,17.40
2019-02-06T10:28:24.305Z,17.80
2019-02-06T10:30:54.259Z,17.73
2019-02-06T10:33:23.992Z,17.47
2019-02-06T10:35:53.783Z,17.93
2019-02-06T10:38:24.129Z,19.47
2019-02-06T10:40:53.902Z,18.67
2019-02-06T10:43:31.629Z,18.20
2019-02-06T10:45:55.202Z,17.33
2019-02-06T10:48:24.961Z,18.20
2019-02-06T10:50:54.913Z,19.53
2019-02-06T10:53:24.692Z,18.77
2019-02-06T10:55:54.353Z,18.00
2019-02-06T10:58:24.086Z,16.50
2019-02-06T11:00:57.871Z,19.90
2019-02-06T11:03:27.602Z,19.37
2019-02-06T11:05:57.339Z,19.37
2019-02-06T11:08:26.960Z,19.00
2019-02-06T11:11:00.620Z,17.77
2019-02-06T11:13:33.128Z,17.53
2019-02-06T11:16:05.604Z,17.23
2019-02-06T11:18:38.076Z,18.43
2019-02-06T11:21:08.032Z,17.67
2019-02-06T11:23:38.108Z,18.73
2019-02-06T11:26:08.319Z,18.07
2019-02-06T11:28:37.950Z,18.60
2019-02-06T11:31:07.729Z,17.30
2019-02-06T11:33:37.507Z,17.20
2019-02-06T11:36:08.200Z,16.83
2019-02-06T11:38:38.117Z,17.97
2019-02-06T11:41:07.862Z,18.53
2019-02-06T11:43:37.966Z,18.97
2019-02-06T11:46:09.161Z,19.33
2019-02-06T11:48:39.079Z,18.60
2019-02-06T11:51:09.203Z,19.67
2019-02-06T11:53:38.909Z,19.57
2019-02-06T11:56:08.700Z,19.53
2019-02-06T11:58:38.419Z,18.27
2019-02-06T12:01:17.810Z,16.93
2019-02-06T12:03:47.659Z,18.17
2019-02-06T12:06:17.373Z,17.93
2019-02-06T12:08:47.155Z,18.50
2019-02-06T12:11:17.652Z,18.37
2019-02-06T12:13:47.902Z,19.17
2019-02-06T12:16:17.584Z,17.70
2019-02-06T12:18:47.775Z,19.00
2019-02-06T12:21:18.126Z,17.57
2019-02-06T12:23:48.111Z,18.13
2019-02-06T12:26:17.903Z,17.83
2019-02-06T12:28:47.565Z,17.50
2019-02-06T12:31:17.387Z,19.97
2019-02-06T12:33:47.100Z,19.87
2019-02-06T12:36:16.756Z,19.27
2019-02-06T12:38:53.698Z,20.07
2019-02-06T12:41:17.778Z,19.83
2019-02-06T12:43:47.516Z,21.33
2019-02-06T12:46:17.303Z,21.73
2019-02-06T12:48:47.042Z,19.03
2019-02-06T12:51:16.726Z,21.93
2019-02-06T12:53:46.380Z,20.90
2019-02-06T12:56:16.111Z,20.73
2019-02-06T12:58:45.777Z,21.00
2019-02-06T13:01:15.584Z,19.17
2019-02-06T13:03:45.377Z,18.80
2019-02-06T13:06:15.081Z,19.47
2019-02-06T13:08:44.835Z,19.03
2019-02-06T13:11:14.563Z,18.33
2019-02-06T13:13:45.301Z,20.67
2019-02-06T13:16:15.177Z,20.10
2019-02-06T13:18:44.947Z,21.40
2019-02-06T13:21:14.685Z,20.10
2019-02-06T13:23:44.443Z,21.27
2019-02-06T13:26:14.243Z,21.63
2019-02-06T13:28:43.988Z,21.63
2019-02-06T13:31:13.647Z,21.90
2019-02-06T13:33:43.402Z,20.70
2019-02-06T13:36:13.226Z,20.10
2019-02-06T13:38:42.898Z,21.67
2019-02-06T13:41:12.630Z,21.10
2019-02-06T13:43:42.364Z,21.17
2019-02-06T13:46:12.143Z,21.37
2019-02-06T13:48:41.817Z,20.83
2019-02-06T13:51:17.381Z,20.17
2019-02-06T13:53:43.048Z,21.50
2019-02-06T13:56:12.691Z,20.17
2019-02-06T13:58:42.447Z,21.37
2019-02-06T14:01:12.346Z,22.10
2019-02-06T14:03:42.148Z,20.70
2019-02-06T14:06:12.455Z,21.83
2019-02-06T14:08:42.211Z,23.30
2019-02-06T14:11:11.872Z,22.13
2019-02-06T14:13:44.677Z,22.93
2019-02-06T14:16:14.423Z,25.63
2019-02-06T14:18:44.406Z,23.23
2019-02-06T14:21:14.326Z,26.53
2019-02-06T14:23:59.172Z,25.90
2019-02-06T14:26:41.800Z,25.47
2019-02-06T14:29:50.377Z,24.57
2019-02-06T14:32:34.478Z,24.53
2019-02-06T14:36:03.635Z,25.60
2019-02-06T14:39:07.074Z,26.93
2019-02-06T14:42:17.874Z,27.80
2019-02-06T14:45:36.836Z,24.83
2019-02-06T14:48:46.269Z,25.83
2019-02-06T14:51:38.082Z,25.90
2019-02-06T14:54:41.875Z,27.07
2019-02-06T14:57:19.857Z,24.77
2019-02-06T15:00:18.441Z,25.53
2019-02-06T15:03:28.408Z,27.47
2019-02-06T15:06:40.124Z,25.17
2019-02-06T15:09:45.994Z,26.77
2019-02-06T15:12:48.829Z,26.13
2019-02-06T15:15:40.684Z,27.50
2019-02-06T15:18:30.138Z,27.27
2019-02-06T15:21:11.837Z,27.60
2019-02-06T15:24:09.142Z,27.70
2019-02-06T15:27:14.776Z,28.30
2019-02-06T15:29:55.642Z,28.10
2019-02-06T15:32:44.487Z,28.40
2019-02-06T15:35:48.401Z,25.60
2019-02-06T15:39:05.139Z,27.07
2019-02-06T15:42:16.279Z,27.20
2019-02-06T15:45:33.142Z,26.30
2019-02-06T15:48:52.445Z,25.27
2019-02-06T15:52:06.412Z,24.43
2019-02-06T15:55:22.147Z,22.57
2019-02-06T15:58:38.763Z,24.23
2019-02-06T16:01:49.318Z,25.13
2019-02-06T16:05:43.862Z,24.23
2019-02-06T16:08:44.397Z,24.13
2019-02-06T16:12:03.876Z,24.17
2019-02-06T16:15:13.990Z,27.33
2019-02-06T16:17:57.474Z,24.53
2019-02-06T16:21:11.141Z,23.23
2019-02-06T16:24:07.071Z,23.93
2019-02-06T16:27:25.451Z,23.80
2019-02-06T16:30:42.030Z,24.00
2019-02-06T16:33:36.780Z,23.17
2019-02-06T16:36:43.292Z,23.50
2019-02-06T16:39:31.358Z,23.93
2019-02-06T16:42:19.629Z,23.75
2019-02-06T16:45:27.046Z,22.75
2019-02-06T16:48:13.707Z,24.23
2019-02-06T16:51:13.980Z,26.05
2019-02-06T16:54:15.005Z,25.50
2019-02-06T16:57:34.773Z,23.92
2019-02-06T17:00:50.114Z,25.05
2019-02-06T17:03:56.882Z,26.57
2019-02-06T17:06:55.351Z,27.00
2019-02-06T17:09:53.124Z,27.98
2019-02-06T17:12:51.175Z,27.27
2019-02-06T17:15:52.296Z,26.70
2019-02-06T17:18:51.751Z,28.10
2019-02-06T17:21:52.069Z,25.27
2019-02-06T17:24:58.958Z,25.85
2019-02-06T17:28:34.278Z,26.52
2019-02-06T17:31:50.344Z,27.73
2019-02-06T17:35:04.417Z,26.42
2019-02-06T17:38:15.629Z,27.70
2019-02-06T17:41:23.616Z,27.73
2019-02-06T17:44:37.951Z,29.05
2019-02-06T17:47:57.849Z,29.57
2019-02-06T17:50:50.484Z,28.25
2019-02-06T17:53:42.088Z,30.92
2019-02-06T17:56:11.875Z,29.15
2019-02-06T17:58:43.662Z,30.72
2019-02-06T18:01:28.047Z,31.60
2019-02-06T18:04:05.171Z,30.02
2019-02-06T18:06:34.907Z,30.17
2019-02-06T18:09:09.358Z,32.50
2019-02-06T18:11:39.195Z,30.32
2019-02-06T18:14:08.801Z,32.28
2019-02-06T18:16:39.316Z,28.38
2019-02-06T18:19:09.170Z,28.85
2019-02-06T18:21:38.784Z,25.57
2019-02-06T18:24:08.865Z,28.05
2019-02-06T18:26:45.602Z,27.48
2019-02-06T18:29:15.344Z,30.08
2019-02-06T18:31:45.016Z,30.32
2019-02-06T18:34:14.707Z,33.08
2019-02-06T18:36:44.455Z,33.78
2019-02-06T18:39:15.565Z,31.57
2019-02-06T18:41:45.699Z,30.12
2019-02-06T18:44:15.535Z,30.57
2019-02-06T18:46:47.349Z,29.35
2019-02-06T18:49:17.528Z,30.15
2019-02-06T18:51:47.400Z,29.48
2019-02-06T18:54:17.148Z,28.20
2019-02-06T18:56:47.758Z,28.45
2019-02-06T18:59:17.950Z,28.40
2019-02-06T19:01:47.666Z,30.97
2019-02-06T19:04:19.620Z,31.30
2019-02-06T19:06:49.487Z,31.30
2019-02-06T19:09:19.724Z,32.90
2019-02-06T19:11:49.864Z,30.68
2019-02-06T19:14:20.012Z,32.30
2019-02-06T19:16:50.462Z,32.08
2019-02-06T19:19:25.452Z,33.28
2019-02-06T19:21:51.521Z,31.48
2019-02-06T19:24:21.257Z,32.40
2019-02-06T19:26:52.617Z,29.30
2019-02-06T19:29:22.339Z,30.40
2019-02-06T19:31:52.080Z,31.97
2019-02-06T19:34:21.842Z,30.50
2019-02-06T19:36:54.804Z,30.20
2019-02-06T19:39:24.651Z,29.82
2019-02-06T19:41:54.378Z,27.45
2019-02-06T19:44:24.172Z,25.68
2019-02-06T19:46:55.679Z,26.00
2019-02-06T19:49:28.033Z,28.32
2019-02-06T19:51:57.947Z,24.95
2019-02-06T19:54:28.603Z,27.07
2019-02-06T19:56:58.436Z,27.05
2019-02-06T19:59:28.214Z,27.35
2019-02-06T20:01:58.141Z,30.45
2019-02-06T20:04:28.016Z,27.60
2019-02-06T20:06:57.886Z,24.02
2019-02-06T20:09:30.317Z,26.42
2019-02-06T20:11:59.108Z,27.20
2019-02-06T20:14:28.939Z,28.10
2019-02-06T20:16:58.871Z,27.77
2019-02-06T20:19:28.628Z,31.50
2019-02-06T20:21:58.513Z,31.87
2019-02-06T20:24:28.190Z,27.27
2019-02-06T20:26:58.045Z,28.73
2019-02-06T20:29:27.939Z,29.52
2019-02-06T20:31:57.802Z,26.52
2019-02-06T20:34:27.899Z,28.25
2019-02-06T20:36:57.790Z,28.02
2019-02-06T20:39:28.444Z,28.15
2019-02-06T20:41:58.627Z,29.10
2019-02-06T20:44:29.826Z,28.17
2019-02-06T20:46:59.843Z,28.07
2019-02-06T20:49:29.893Z,28.47
2019-02-06T20:51:59.800Z,27.13
2019-02-06T20:54:29.606Z,27.27
2019-02-06T20:56:59.469Z,28.15
2019-02-06T20:59:29.116Z,26.93
2019-02-06T21:01:59.053Z,27.82
2019-02-06T21:04:28.733Z,25.48
2019-02-06T21:06:58.540Z,25.53
2019-02-06T21:09:29.205Z,27.80
2019-02-06T21:11:58.879Z,25.05
2019-02-06T21:14:28.611Z,26.27
2019-02-06T21:16:58.402Z,26.65
2019-02-06T21:19:28.384Z,26.50
2019-02-06T21:21:58.109Z,27.15
2019-02-06T21:24:27.983Z,24.52
2019-02-06T21:26:57.809Z,24.75
2019-02-06T21:29:27.484Z,28.12
2019-02-06T21:31:57.316Z,26.00
2019-02-06T21:34:29.601Z,25.20
2019-02-06T21:36:59.355Z,24.72
2019-02-06T21:39:29.026Z,28.15
2019-02-06T21:41:58.866Z,25.08
2019-02-06T21:44:28.625Z,27.93
2019-02-06T21:46:58.305Z,24.65
2019-02-06T21:49:28.465Z,28.07
2019-02-06T21:51:58.234Z,25.68
2019-02-06T21:54:27.896Z,27.80
2019-02-06T21:56:57.626Z,26.75
2019-02-06T21:59:27.368Z,27.42
2019-02-06T22:01:57.157Z,28.17
2019-02-06T22:04:27.137Z,27.10
2019-02-06T22:06:56.827Z,28.60
2019-02-06T22:09:26.527Z,26.02
2019-02-06T22:11:56.215Z,27.98
2019-02-06T22:14:26.012Z,25.20
2019-02-06T22:16:55.905Z,27.20
2019-02-06T22:19:25.586Z,26.12
2019-02-06T22:21:55.212Z,26.75
2019-02-06T22:24:25.005Z,27.75
2019-02-06T22:26:54.902Z,25.32
2019-02-06T22:29:24.751Z,25.40
2019-02-06T22:31:55.006Z,23.90
2019-02-06T22:34:24.788Z,24.02
2019-02-06T22:36:54.465Z,24.77
2019-02-06T22:39:24.236Z,22.93
2019-02-06T22:41:53.965Z,23.40
2019-02-06T22:44:23.590Z,26.77
2019-02-06T22:46:53.705Z,26.05
2019-02-06T22:49:23.611Z,26.35
2019-02-06T22:51:53.260Z,25.45
2019-02-06T22:54:22.959Z,25.57
2019-02-06T22:56:52.670Z,26.52
2019-02-06T22:59:22.446Z,24.85
2019-02-06T23:01:57.725Z,24.47
2019-02-06T23:04:27.578Z,22.87
2019-02-06T23:06:57.216Z,23.67
2019-02-06T23:09:26.935Z,23.15
2019-02-06T23:11:56.798Z,24.98
2019-02-06T23:14:27.054Z,27.85
2019-02-06T23:16:56.802Z,26.15
2019-02-06T23:19:26.597Z,25.32
2019-02-06T23:21:56.206Z,30.80
2019-02-06T23:24:26.156Z,28.02
2019-02-06T23:26:55.846Z,26.20
2019-02-06T23:29:25.589Z,27.40
2019-02-06T23:31:55.211Z,24.77
2019-02-06T23:34:25.026Z,22.87
2019-02-06T23:36:54.786Z,23.77
2019-02-06T23:39:24.430Z,22.52
2019-02-06T23:41:54.130Z,21.82
2019-02-06T23:44:29.059Z,23.87
2019-02-06T23:46:56.284Z,21.95
2019-02-06T23:49:26.030Z,22.87
2019-02-06T23:51:55.844Z,21.48
2019-02-06T23:54:25.633Z,23.55
2019-02-06T23:56:55.658Z,23.38
2019-02-06T23:59:25.572Z,24.18
